Meteorología y climatología de Navarra
Datos de la estación - Meteo Navarra

Estación de Bera (Larrategaña) GN

Altitud 306 m.


Datos desde el 23/05/2020 hasta el 24/05/2020 en horario solar
Los datos son PROVISIONALES

Anterior Página 1 de 1 Siguiente Descargar: Formato para Excel 2000 o superior   Formato csv   Formato para OpenOffice Calc
Fecha Temperatura Humedad relativa Radiación global Insolación Precipitación Vel. viento 10 m Vel. viento 10 m Dir. viento 10 m
ºC % W/m² s l/m² m/s km/h º
23/05/2020 0:00 14.8 99 0.0 0 0.0 0.6 2.0 325
23/05/2020 0:10 14.8 99 0.0 0 0.1 0.3 0.9 300
23/05/2020 0:20 14.8 99 0.0 0 0.0 0.1 0.4 207
23/05/2020 0:30 14.8 99 0.0 0 0.0 0.1 0.5 207
23/05/2020 0:40 14.8 99 0.0 0 0.0 0.4 1.5 245
23/05/2020 0:50 14.9 99 0.0 0 0.0 0.7 2.3 236
23/05/2020 1:00 14.9 100 0.0 0 0.1 0.5 1.7 194
23/05/2020 1:10 14.9 100 0.0 0 0.0 0.3 1.1 223
23/05/2020 1:20 14.9 100 0.0 0 0.0 0.3 1.0 199
23/05/2020 1:30 14.9 100 0.0 0 0.1 0.2 0.8 194
23/05/2020 1:40 14.9 100 0.0 0 0.0 0.4 1.3 165
23/05/2020 1:50 14.9 100 0.0 0 0.1 0.7 2.3 234
23/05/2020 2:00 14.9 100 0.0 0 0.0 0.4 1.4 225
23/05/2020 2:10 14.9 100 0.0 0 0.1 0.1 0.4 215
23/05/2020 2:20 14.9 100 0.0 0 0.1 0.8 2.9 350
23/05/2020 2:30 14.9 100 0.0 0 0.1 1.3 4.8 358
23/05/2020 2:40 14.9 100 0.0 0 0.0 1.3 4.8 14
23/05/2020 2:50 14.9 100 0.0 0 0.1 1.1 4.1 358
23/05/2020 3:00 14.9 100 0.0 0 0.0 1.4 5.2 355
23/05/2020 3:10 14.8 100 0.0 0 0.1 1.7 6.0 345
23/05/2020 3:20 14.8 100 0.0 0 0.0 1.1 3.8 321
23/05/2020 3:30 14.7 100 0.0 0 0.0 1.1 3.9 2
23/05/2020 3:40 14.7 100 0.0 0 0.0 1.3 4.6 23
23/05/2020 3:50 14.6 100 0.0 0 0.0 1.1 3.9 14
23/05/2020 4:00 14.6 100 0.0 0 0.0 1.0 3.6 33
23/05/2020 4:10 14.6 100 0.0 0 0.1 0.6 2.1 39
23/05/2020 4:20 14.6 100 0.0 0 0.0 0.4 1.5 325
23/05/2020 4:30 14.6 100 0.0 0 0.0 0.6 2.1 276
23/05/2020 4:40 14.7 100 0.0 0 0.0 0.5 1.8 261
23/05/2020 4:50 14.7 100 0.0 0 0.0 0.0 0.1 278
23/05/2020 5:00 14.7 100 0.0 0 0.0 0.1 0.4 256
23/05/2020 5:10 14.7 100 0.0 0 0.0 0.5 1.9 212
23/05/2020 5:20 14.7 100 0.0 0 0.0 0.6 2.1 220
23/05/2020 5:30 14.7 100 0.0 0 0.0 0.5 1.9 203
23/05/2020 5:40 14.7 100 0.1 0 0.1 0.4 1.5 221
23/05/2020 5:50 14.7 100 10.1 0 0.0 0.1 0.4 247
23/05/2020 6:00 14.7 100 3.6 0 0.0 0.1 0.3 248
23/05/2020 6:10 14.7 100 16.0 0 0.1 0.2 0.7 35
23/05/2020 6:20 14.8 100 27.4 0 0.2 0.3 1.0 343
23/05/2020 6:30 14.9 100 47.1 0 0.1 0.1 0.4 321
23/05/2020 6:40 14.9 100 41.1 0 0.1 0.4 1.3 268
23/05/2020 6:50 14.9 100 24.2 0 0.3 0.2 0.7 297
23/05/2020 7:00 14.9 100 35.6 0 0.2 1.2 4.5 41
23/05/2020 7:10 14.9 100 29.1 0 0.2 1.5 5.5 49
23/05/2020 7:20 14.9 100 49.5 0 0.2 1.6 5.7 18
23/05/2020 7:30 14.8 100 48.9 0 0.1 1.2 4.4 349
23/05/2020 7:40 14.6 100 42.2 0 0.1 2.1 7.6 347
23/05/2020 7:50 14.3 100 56.9 0 0.0 2.1 7.6 339
23/05/2020 8:00 14.1 100 69.9 0 0.1 3.5 12.7 339
23/05/2020 8:10 13.6 100 44.7 0 0.0 2.5 8.9 359
23/05/2020 8:20 13.5 99 45.7 0 0.1 3.2 11.3 351
23/05/2020 8:30 13.2 99 57.7 0 0.0 2.9 10.3 5
23/05/2020 8:40 13.4 97 48.9 0 0.0 2.4 8.7 6
23/05/2020 8:50 13.5 97 63.3 0 0.1 1.8 6.6 353
23/05/2020 9:00 13.5 97 76.1 0 0.0 2.2 7.8 343
23/05/2020 9:10 13.6 97 68.3 0 0.1 1.6 5.8 0
23/05/2020 9:20 13.4 97 59.6 0 0.0 1.2 4.2 32
23/05/2020 9:30 13.3 97 45.8 0 0.3 1.2 4.3 3
23/05/2020 9:40 13.2 97 46.2 0 0.4 1.6 5.8 20
23/05/2020 9:50 12.9 98 59.1 0 0.3 3.1 11.2 33
23/05/2020 10:00 12.8 98 79.4 0 0.2 2.9 10.3 11
23/05/2020 10:10 12.8 99 110.5 0 0.1 3.3 11.7 350
23/05/2020 10:20 12.7 98 149.6 0 0.1 3.0 10.9 357
23/05/2020 10:30 12.5 98 136.5 0 0.0 2.9 10.3 349
23/05/2020 10:40 12.5 98 142.1 0 0.1 2.5 8.9 350
23/05/2020 10:50 12.4 98 95.2 0 0.1 2.3 8.2 357
23/05/2020 11:00 12.4 99 116.8 0 0.0 2.2 7.9 357
23/05/2020 11:10 12.4 99 115.1 0 0.0 1.8 6.3 344
23/05/2020 11:20 12.5 99 109.0 0 0.1 1.4 5.0 343
23/05/2020 11:30 12.6 99 91.8 0 0.4 1.6 5.7 20
23/05/2020 11:40 12.4 98 191.5 0 0.1 2.9 10.4 43
23/05/2020 11:50 12.6 98 202.0 0 0.0 3.8 13.8 62
23/05/2020 12:00 12.4 98 144.0 0 0.1 3.6 12.9 50
23/05/2020 12:10 12.2 98 142.5 0 0.1 3.8 13.8 44
23/05/2020 12:20 11.9 97 170.4 0 0.0 3.6 12.9 40
23/05/2020 12:30 11.9 94 216.5 0 0.0 2.8 9.9 34
23/05/2020 12:40 12.3 91 195.3 0 0.0 2.7 9.5 43
23/05/2020 12:50 12.5 90 242.5 0 0.0 2.3 8.4 52
23/05/2020 13:00 12.7 87 267.3 0 0.0 2.5 9.0 57
23/05/2020 13:10 13.0 84 310.9 0 0.0 2.2 7.8 49
23/05/2020 13:20 13.3 84 344.2 26 0.0 2.3 8.4 45
23/05/2020 13:30 13.8 84 533.7 364 0.0 2.0 7.3 61
23/05/2020 13:40 14.1 81 419.6 0 0.0 1.5 5.5 39
23/05/2020 13:50 14.0 82 248.3 0 0.0 1.6 5.8 38
23/05/2020 14:00 13.9 82 277.6 0 0.0 1.0 3.5 319
23/05/2020 14:10 14.2 81 379.9 0 0.0 0.8 2.8 69
23/05/2020 14:20 14.6 81 329.9 0 0.0 1.0 3.5 274
23/05/2020 14:30 14.4 82 313.0 0 0.0 1.5 5.4 20
23/05/2020 14:40 14.6 82 200.3 0 0.0 1.1 3.8 358
23/05/2020 14:50 14.1 85 146.3 0 0.0 1.3 4.6 24
23/05/2020 15:00 14.0 86 144.6 0 0.0 1.7 6.3 27
23/05/2020 15:10 13.7 87 75.3 0 0.0 1.8 6.3 357
23/05/2020 15:20 13.3 88 110.0 0 0.0 1.4 5.1 22
23/05/2020 15:30 13.6 86 206.6 0 0.0 1.6 5.9 11
23/05/2020 15:40 14.2 84 301.0 0 0.0 1.4 5.2 356
23/05/2020 15:50 14.5 82 380.0 534 0.0 1.7 5.9 359
23/05/2020 16:00 14.8 81 380.9 600 0.0 1.4 4.9 354
23/05/2020 16:10 14.7 80 374.5 600 0.0 2.3 8.2 338
23/05/2020 16:20 14.8 80 461.5 600 0.0 1.9 6.8 355
23/05/2020 16:30 14.9 79 384.0 600 0.0 2.4 8.7 347
23/05/2020 16:40 15.0 78 582.4 600 0.0 1.8 6.5 338
23/05/2020 16:50 15.3 75 625.2 600 0.0 2.4 8.5 341
23/05/2020 17:00 14.9 75 387.5 600 0.0 2.2 7.8 317
23/05/2020 17:10 14.9 77 229.4 336 0.0 1.7 5.9 319
23/05/2020 17:20 14.3 79 133.7 0 0.0 1.6 5.6 353
23/05/2020 17:30 13.9 79 136.1 0 0.0 2.0 7.2 342
23/05/2020 17:40 14.0 78 147.1 62 0.0 1.8 6.6 326
23/05/2020 17:50 13.9 78 127.0 50 0.0 1.9 6.9 329
23/05/2020 18:00 14.0 78 237.8 566 0.0 1.2 4.3 333
23/05/2020 18:10 14.3 77 186.3 524 0.0 1.2 4.4 338
23/05/2020 18:20 14.1 79 108.9 146 0.0 1.7 5.9 8
23/05/2020 18:30 13.6 80 48.8 0 0.0 2.2 8.0 352
23/05/2020 18:40 13.3 81 38.4 0 0.0 1.7 6.2 347
23/05/2020 18:50 13.2 82 17.5 0 0.0 1.8 6.5 2
23/05/2020 19:00 13.1 83 24.3 0 0.0 1.8 6.4 20
23/05/2020 19:10 13.1 84 15.0 0 0.0 1.4 4.9 13
23/05/2020 19:20 13.1 84 0.0 0 0.0 2.2 8.0 17
23/05/2020 19:30 13.1 85 0.0 0 0.0 2.1 7.7 19
23/05/2020 19:40 12.9 86 0.0 0 0.0 2.0 7.3 12
23/05/2020 19:50 12.9 86 0.0 0 0.0 1.9 6.7 9
23/05/2020 20:00 12.9 87 0.0 0 0.0 1.2 4.4 10
23/05/2020 20:10 12.9 87 0.0 0 0.0 1.5 5.2 1
23/05/2020 20:20 12.9 87 0.0 0 0.0 1.4 4.9 3
23/05/2020 20:30 12.9 87 0.0 0 0.0 1.4 5.1 353
23/05/2020 20:40 12.9 88 0.0 0 0.0 1.9 6.9 17
23/05/2020 20:50 13.0 88 0.0 0 0.0 3.1 11.0 44
23/05/2020 21:00 13.1 88 0.0 0 0.0 3.4 12.3 51
23/05/2020 21:10 12.8 90 0.0 0 0.0 3.2 11.4 53
23/05/2020 21:20 12.6 90 0.0 0 0.0 2.6 9.5 54
23/05/2020 21:30 12.5 91 0.0 0 0.0 2.4 8.6 61
23/05/2020 21:40 12.4 91 0.0 0 0.0 2.5 8.9 62
23/05/2020 21:50 12.2 89 0.0 0 0.0 2.0 7.0 61
23/05/2020 22:00 12.2 89 0.0 0 0.0 1.6 5.6 58
23/05/2020 22:10 12.2 89 0.0 0 0.0 1.2 4.3 52
23/05/2020 22:20 12.1 88 0.0 0 0.0 1.2 4.1 61
23/05/2020 22:30 12.1 89 0.0 0 0.0 0.8 3.0 358
23/05/2020 22:40 12.2 89 0.0 0 0.0 0.9 3.1 326
23/05/2020 22:50 12.0 90 0.0 0 0.0 1.0 3.7 298
23/05/2020 23:00 11.9 90 0.0 0 0.0 0.3 1.0 71
23/05/2020 23:10 12.0 89 0.0 0 0.0 1.3 4.8 50
23/05/2020 23:20 11.8 88 0.0 0 0.0 2.0 7.1 56
23/05/2020 23:30 11.9 87 0.0 0 0.0 0.7 2.7 31
23/05/2020 23:40 11.9 86 0.0 0 0.0 0.9 3.1 18
23/05/2020 23:50 11.4 88 0.0 0 0.0 1.4 5.0 38
Anterior Página 1 de 1 Siguiente

NOTA: Tipo de datos según el color:
   - Valores diarios o 10 minutos correctos
   - Valores diarios calculados a partir de un número de datos 10 minutos menor que 144 y mayor que 120, o de un número de datos semihorarios menor que 48 y mayor que 40 (caso de las estaciones de INTIA y del Ministerio)
   - Valores diez minutos estimados


Contacto        Enlaces        Aviso legal